createdAt,value
2018-09-08T00:01:07.326Z,61.79
2018-09-08T00:22:21.439Z,64.12
2018-09-08T00:27:19.848Z,63.59
2018-09-08T00:32:14.647Z,64.24
2018-09-08T00:37:09.563Z,64.90
2018-09-08T00:42:04.019Z,65.24
2018-09-08T00:46:58.487Z,65.54
2018-09-08T00:51:52.939Z,64.75
2018-09-08T00:56:47.355Z,65.31
2018-09-08T01:17:56.547Z,66.78
2018-09-08T01:22:51.373Z,67.38
2018-09-08T01:27:45.820Z,68.15
2018-09-08T01:32:40.280Z,68.54
2018-09-08T01:37:34.676Z,68.42
2018-09-08T01:42:29.124Z,68.48
2018-09-08T01:47:23.627Z,68.11
2018-09-08T01:52:18.410Z,68.66
2018-09-08T02:13:27.760Z,70.56
2018-09-08T02:18:22.246Z,69.75
2018-09-08T02:23:16.728Z,69.81
2018-09-08T02:28:11.209Z,69.84
2018-09-08T02:33:05.672Z,71.12
2018-09-08T02:38:00.197Z,71.22
2018-09-08T02:42:54.684Z,71.70
2018-09-08T02:47:49.112Z,72.30
2018-09-08T02:52:41.877Z,71.75
2018-09-08T03:13:49.160Z,72.33
2018-09-08T03:18:41.960Z,72.75
2018-09-08T03:23:34.720Z,72.68
2018-09-08T03:28:27.512Z,72.83
2018-09-08T03:33:20.288Z,71.64
2018-09-08T03:38:13.093Z,71.94
2018-09-08T03:43:05.857Z,72.01
2018-09-08T03:47:58.632Z,72.31
2018-09-08T04:09:12.016Z,73.71
2018-09-08T04:14:06.611Z,74.05
2018-09-08T04:19:01.124Z,74.84
2018-09-08T04:23:55.665Z,74.66
2018-09-08T04:28:50.167Z,74.53
2018-09-08T04:33:44.656Z,74.92
2018-09-08T04:38:39.120Z,74.92
2018-09-08T04:43:33.582Z,74.10
2018-09-08T05:04:43.060Z,74.85
2018-09-08T05:09:37.516Z,74.77
2018-09-08T05:14:31.976Z,74.15
2018-09-08T05:19:26.445Z,74.89
2018-09-08T05:24:20.856Z,73.21
2018-09-08T05:29:15.295Z,72.16
2018-09-08T05:34:09.744Z,70.99
2018-09-08T05:39:04.816Z,70.45
2018-09-08T06:00:13.728Z,71.76
2018-09-08T06:05:08.267Z,72.23
2018-09-08T06:10:02.739Z,69.25
2018-09-08T06:14:57.167Z,65.05
2018-09-08T06:19:51.608Z,62.15
2018-09-08T06:24:46.052Z,60.02
2018-09-08T06:29:40.498Z,59.51
2018-09-08T06:34:34.922Z,58.92
2018-09-08T06:55:43.218Z,57.72
2018-09-08T07:00:37.624Z,57.19
2018-09-08T07:05:32.194Z,57.25
2018-09-08T07:10:26.685Z,56.31
2018-09-08T07:15:21.329Z,56.48
2018-09-08T07:20:15.739Z,55.71
2018-09-08T07:25:10.867Z,56.04
2018-09-08T07:30:05.353Z,55.55
2018-09-08T07:51:14.244Z,54.30
2018-09-08T07:56:08.674Z,54.96
2018-09-08T08:01:03.196Z,55.08
2018-09-08T08:05:57.640Z,55.19
2018-09-08T08:10:52.088Z,54.61
2018-09-08T08:15:46.563Z,55.87
2018-09-08T08:20:41.174Z,55.20
2018-09-08T08:25:35.615Z,54.92
2018-09-08T08:46:45.625Z,53.83
2018-09-08T08:51:56.844Z,53.78
2018-09-08T08:56:51.450Z,54.31
2018-09-08T09:01:45.900Z,54.43
2018-09-08T09:06:40.388Z,54.02
2018-09-08T09:11:35.115Z,52.55
2018-09-08T09:16:29.300Z,51.33
2018-09-08T09:21:40.632Z,50.28
2018-09-08T09:42:50.083Z,50.04
2018-09-08T09:47:44.519Z,50.32
2018-09-08T09:52:39.184Z,49.17
2018-09-08T09:57:33.889Z,49.31
2018-09-08T10:02:42.347Z,50.34
2018-09-08T10:07:36.912Z,49.91
2018-09-08T10:12:31.522Z,49.84
2018-09-08T10:17:26.011Z,49.65
2018-09-08T10:28:02.652Z,48.24
2018-09-08T10:32:57.196Z,47.91
2018-09-08T10:37:51.791Z,46.78
2018-09-08T10:42:46.289Z,46.96
2018-09-08T11:03:55.318Z,48.15
2018-09-08T11:08:49.756Z,47.80
2018-09-08T11:13:44.182Z,47.37
2018-09-08T11:18:38.634Z,45.44
2018-09-08T11:23:33.052Z,44.45
2018-09-08T11:28:27.529Z,46.18
2018-09-08T11:49:36.924Z,45.54
2018-09-08T11:54:31.321Z,45.87
2018-09-08T11:59:25.817Z,44.64
2018-09-08T12:04:20.298Z,44.78
2018-09-08T12:09:14.761Z,46.03
2018-09-08T12:14:09.694Z,45.76
2018-09-08T12:19:04.391Z,46.64
2018-09-08T12:40:13.465Z,44.19
2018-09-08T12:45:08.009Z,41.85
2018-09-08T12:50:02.451Z,40.78
2018-09-08T12:54:56.853Z,41.24
2018-09-08T12:59:51.336Z,42.16
2018-09-08T13:04:45.780Z,40.95
2018-09-08T13:09:40.266Z,40.94
2018-09-08T13:30:49.491Z,39.86
2018-09-08T13:35:43.911Z,38.95
2018-09-08T13:40:38.434Z,39.02
2018-09-08T13:45:32.876Z,38.24
2018-09-08T13:50:27.808Z,38.06
2018-09-08T13:55:22.289Z,36.84
2018-09-08T14:00:16.767Z,37.85
2018-09-08T14:21:25.644Z,37.39
2018-09-08T14:26:20.060Z,36.55
2018-09-08T14:31:14.667Z,37.29
2018-09-08T14:36:09.151Z,36.10
2018-09-08T14:41:03.608Z,36.97
2018-09-08T14:45:58.040Z,35.90
2018-09-08T14:50:52.543Z,35.83
2018-09-08T15:12:01.470Z,36.81
2018-09-08T15:16:55.928Z,36.08
2018-09-08T15:21:50.699Z,36.78
2018-09-08T15:26:45.292Z,36.20
2018-09-08T15:31:39.745Z,35.97
2018-09-08T15:36:34.341Z,36.14
2018-09-08T15:41:28.803Z,34.71
2018-09-08T16:02:38.128Z,35.42
2018-09-08T16:07:32.597Z,35.90
2018-09-08T16:12:27.072Z,36.51
2018-09-08T16:17:21.476Z,36.04
2018-09-08T16:22:15.981Z,36.30
2018-09-08T16:27:10.444Z,36.32
2018-09-08T16:32:04.988Z,36.16
2018-09-08T16:53:14.193Z,35.73
2018-09-08T16:58:08.710Z,35.48
2018-09-08T17:03:03.080Z,35.28
2018-09-08T17:07:57.513Z,35.97
2018-09-08T17:12:51.951Z,37.25
2018-09-08T17:17:46.504Z,36.90
2018-09-08T17:22:41.064Z,38.04
2018-09-08T17:43:50.771Z,40.47
2018-09-08T17:48:45.316Z,40.39
2018-09-08T17:53:39.799Z,41.94
2018-09-08T17:58:34.233Z,42.46
2018-09-08T18:03:28.985Z,43.45
2018-09-08T18:08:25.944Z,44.99
2018-09-08T18:13:20.434Z,46.34
2018-09-08T18:34:29.905Z,51.15
2018-09-08T18:39:24.413Z,52.44
2018-09-08T18:44:18.928Z,52.02
2018-09-08T18:49:13.372Z,52.36
2018-09-08T18:54:08.070Z,54.29
2018-09-08T18:59:02.590Z,53.01
2018-09-08T19:03:57.089Z,55.26
2018-09-08T19:25:07.019Z,57.75
2018-09-08T19:30:02.575Z,57.98
2018-09-08T19:35:02.239Z,58.52
2018-09-08T19:39:56.733Z,57.75
2018-09-08T19:44:51.193Z,57.64
2018-09-08T19:49:45.749Z,58.84
2018-09-08T19:54:40.264Z,58.87
2018-09-08T20:15:49.537Z,60.85
2018-09-08T20:20:44.000Z,60.38
2018-09-08T20:25:38.505Z,60.72
2018-09-08T20:30:33.009Z,60.69
2018-09-08T20:35:27.480Z,60.85
2018-09-08T20:40:21.960Z,61.63
2018-09-08T20:45:16.442Z,62.29
2018-09-08T21:06:25.932Z,64.48
2018-09-08T21:11:20.480Z,64.52
2018-09-08T21:16:15.128Z,65.81
2018-09-08T21:21:09.568Z,66.01
2018-09-08T21:26:04.101Z,67.06
2018-09-08T21:30:58.560Z,67.25
2018-09-08T21:41:36.366Z,67.95
2018-09-08T21:46:30.900Z,68.73
2018-09-08T21:51:25.361Z,68.61
2018-09-08T21:56:19.796Z,69.29
2018-09-08T22:17:29.039Z,70.66
2018-09-08T22:22:23.516Z,71.82
2018-09-08T22:27:18.122Z,71.49
2018-09-08T22:32:12.568Z,71.82
2018-09-08T22:37:07.451Z,72.98
2018-09-08T22:42:01.905Z,73.70
2018-09-08T23:03:11.338Z,74.83
2018-09-08T23:08:05.946Z,74.69
2018-09-08T23:13:00.421Z,74.66
2018-09-08T23:17:54.868Z,75.72
2018-09-08T23:22:49.354Z,76.35
2018-09-08T23:27:43.804Z,76.94
2018-09-08T23:32:38.280Z,76.08
2018-09-08T23:53:47.369Z,78.51
2018-09-08T23:58:41.845Z,78.19
